Light Rain Showers Current Weather (METAR) For Innsbruck - Kranebitten Airport

All times on the weather descriptions are local

Observed at 14:50 - (13 mins ago)

Light Rain Showers

4°C

Light Rain Showers
Clouds: Few Clouds at 300ft, Scattered Clouds at 2,000ft, Broken Clouds at 4,000ft
Wind: 090° at 06 knots, varying from 050° to 130
Visibility: Greater than 10km
QNH: 1022
Dew Point: 3°C
Runway in Use: Runway 08

Sunrise Today: 07:43
Sunset Today: 18:14

Forecast Weather (TAF) For Innsbruck - Kranebitten Airport

Issued at 02:00 - (7 days 10 hrs ago)


Runway in Use: Unable to determine, wind is clam

Forecast valid until 02:00 on Friday

METAR/TAF RAW METAR / TAF

LOWI 231250Z 09006KT 050V130 9999 -SHRA FEW003 SCT020 BKN040 04/03 Q1022 NOSIG

Weather Widget

Put weather from any of our airports on your website with our weather widget.

Find Another Search

Airport Search


Please Wait Please Wait - Loading
Close
Close

Login

Username:

Password:

Remember Me:

Remember me on this computer

Forgotten your password? Get a reset password sent to your registered e-mail address

Close

User Private Message

Subject:

Message: